createdAt,value
2022-10-10T08:36:27.678Z,101325.75
2022-10-10T08:38:30.338Z,101316.03
2022-10-10T08:40:33.229Z,101324.06
2022-10-10T08:42:48.946Z,101335.69
2022-10-10T08:44:59.240Z,101330.84
2022-10-10T08:47:12.273Z,101319.72
2022-10-10T08:49:37.673Z,101321.13
2022-10-10T08:51:42.740Z,101329.00
2022-10-10T08:53:49.581Z,101323.47
2022-10-10T08:55:53.528Z,101330.88
2022-10-10T08:58:11.338Z,101331.44
2022-10-10T09:00:18.059Z,101320.75
2022-10-10T09:02:50.104Z,101324.38
2022-10-10T09:04:57.792Z,101316.25
2022-10-10T09:07:25.172Z,101327.81
2022-10-10T09:09:41.879Z,101321.59
2022-10-10T09:12:03.158Z,101323.97
2022-10-10T09:14:05.315Z,101331.69
2022-10-10T09:16:14.685Z,101332.03
2022-10-10T09:18:49.716Z,101339.03
2022-10-10T09:21:12.731Z,101336.28
2022-10-10T09:23:35.297Z,101332.72
2022-10-10T09:25:46.594Z,101331.28
2022-10-10T09:27:56.532Z,101336.97
2022-10-10T09:30:13.998Z,101338.75
2022-10-10T09:32:27.917Z,101342.88
2022-10-10T09:34:41.634Z,101337.25
2022-10-10T09:36:44.870Z,101328.91
2022-10-10T09:38:52.906Z,101328.66
2022-10-10T09:41:06.060Z,101330.97
2022-10-10T09:43:16.722Z,101315.50
2022-10-10T09:45:30.556Z,101319.69
2022-10-10T09:47:33.647Z,101322.34
2022-10-10T09:49:35.921Z,101318.37
2022-10-10T09:51:38.486Z,101333.06
2022-10-10T09:53:42.139Z,101335.50
2022-10-10T09:55:46.915Z,101321.66
2022-10-10T09:57:52.578Z,101326.78
2022-10-10T09:59:55.187Z,101327.38
2022-10-10T10:02:15.141Z,101325.25
2022-10-10T10:04:28.233Z,101324.28
2022-10-10T10:06:31.358Z,101329.16
2022-10-10T10:08:36.581Z,101328.72
2022-10-10T10:10:39.182Z,101324.78
2022-10-10T10:12:43.709Z,101328.59
2022-10-10T10:14:47.070Z,101330.66
2022-10-10T10:16:49.665Z,101325.41
2022-10-10T10:18:51.921Z,101326.16
2022-10-10T10:21:03.067Z,101317.88
2022-10-10T10:23:06.444Z,101316.31
2022-10-10T10:25:31.488Z,101321.78
2022-10-10T10:27:34.194Z,101317.38
2022-10-10T10:29:37.265Z,101311.28
2022-10-10T10:31:58.672Z,101320.63
2022-10-10T10:34:38.413Z,101326.41
2022-10-10T10:36:54.055Z,101325.47
2022-10-10T10:39:13.338Z,101327.59
2022-10-10T10:41:43.194Z,101317.47
2022-10-10T10:44:27.291Z,101314.22
2022-10-10T10:47:10.323Z,101293.00
2022-10-10T10:49:24.691Z,101292.75
2022-10-10T10:51:51.108Z,101290.06
2022-10-10T10:54:00.171Z,101292.56
2022-10-10T10:56:34.151Z,101308.16
2022-10-10T10:59:38.595Z,101301.94
2022-10-10T11:01:56.593Z,101317.41
2022-10-10T11:05:15.991Z,101322.00
2022-10-10T11:07:00.076Z,101319.78
2022-10-10T11:11:43.902Z,101343.59
2022-10-10T11:14:11.254Z,101347.91
2022-10-10T11:16:49.461Z,101369.88
2022-10-10T11:19:03.965Z,101360.16
2022-10-10T11:21:29.528Z,101345.44
2022-10-10T11:23:41.571Z,101351.41
2022-10-10T11:26:07.995Z,101348.06
2022-10-10T11:28:19.820Z,101336.00
2022-10-10T11:30:24.455Z,101334.87
2022-10-10T11:32:33.760Z,101324.94
2022-10-10T11:34:52.246Z,101324.87
2022-10-10T11:37:00.116Z,101306.62
2022-10-10T11:39:16.144Z,101302.06
2022-10-10T11:41:25.816Z,101294.34
2022-10-10T11:43:43.501Z,101287.47
2022-10-10T11:45:53.666Z,101281.37
2022-10-10T11:48:06.650Z,101274.19
2022-10-10T11:50:26.440Z,101275.28
2022-10-10T11:52:47.027Z,101282.69
2022-10-10T11:54:54.882Z,101266.09
2022-10-10T11:57:04.327Z,101258.94
2022-10-10T11:59:24.247Z,101263.09
2022-10-10T12:01:45.433Z,101243.47
2022-10-10T12:03:51.017Z,101253.31
2022-10-10T12:06:22.104Z,101239.38
2022-10-10T12:08:35.762Z,101226.09
2022-10-10T12:11:03.101Z,101224.25
2022-10-10T12:13:32.997Z,101227.03
2022-10-10T12:15:42.607Z,101217.47
2022-10-10T12:17:47.267Z,101209.81
2022-10-10T12:19:51.693Z,101207.38
2022-10-10T12:22:05.737Z,101217.84
2022-10-10T12:24:13.856Z,101211.62
2022-10-10T12:26:19.504Z,101211.38
2022-10-10T12:28:27.224Z,101212.66
2022-10-10T12:30:30.277Z,101202.84
2022-10-10T12:32:43.451Z,101212.28
2022-10-10T12:35:39.710Z,101211.88
2022-10-10T12:38:21.456Z,101199.44
2022-10-10T12:40:23.996Z,101197.28
2022-10-10T12:42:28.797Z,101186.97
2022-10-10T12:44:46.874Z,101179.69
2022-10-10T12:47:35.890Z,101172.56
2022-10-10T12:49:50.686Z,101183.72
2022-10-10T12:52:20.844Z,101177.38
2022-10-10T12:54:32.822Z,101191.34
2022-10-10T12:56:41.997Z,101177.72
2022-10-10T12:58:49.034Z,101183.03
2022-10-10T13:00:53.063Z,101195.19
2022-10-10T13:02:58.729Z,101199.75
2022-10-10T13:05:02.624Z,101193.06
2022-10-10T13:07:05.131Z,101180.09
2022-10-10T13:09:10.844Z,101181.63
2022-10-10T13:11:15.633Z,101192.53
2022-10-10T13:13:20.197Z,101177.56
2022-10-10T13:15:22.715Z,101175.31
2022-10-10T13:17:41.095Z,101169.59
2022-10-10T13:19:43.281Z,101168.47
2022-10-10T13:21:45.984Z,101151.13
2022-10-10T13:26:19.698Z,101138.22
2022-10-10T13:28:22.508Z,101145.91
2022-10-10T13:30:25.948Z,101164.78
2022-10-10T13:32:32.814Z,101158.25
2022-10-10T13:34:40.128Z,101159.66
2022-10-10T13:36:43.517Z,101152.72
2022-10-10T13:38:47.345Z,101160.53
2022-10-10T13:40:49.687Z,101150.25
2022-10-10T13:42:53.219Z,101151.50
2022-10-10T13:44:56.711Z,101151.44
2022-10-10T13:46:59.630Z,101136.84
2022-10-10T13:49:12.692Z,101131.06
2022-10-10T13:51:15.636Z,101128.28
2022-10-10T13:53:27.028Z,101117.41
2022-10-10T13:55:37.514Z,101118.87
2022-10-10T13:57:40.585Z,101126.62
2022-10-10T13:59:44.242Z,101114.94
2022-10-10T14:01:48.603Z,101113.62
2022-10-10T14:03:53.836Z,101113.03
2022-10-10T14:05:56.340Z,101128.59
2022-10-10T14:07:59.349Z,101123.28
2022-10-10T14:10:07.735Z,101128.56
2022-10-10T14:12:24.519Z,101115.78
2022-10-10T14:14:43.032Z,101121.59
2022-10-10T14:16:45.634Z,101113.50
2022-10-10T14:18:47.824Z,101118.16
2022-10-10T14:20:51.557Z,101098.97
2022-10-10T14:22:54.022Z,101103.81
2022-10-10T14:24:56.320Z,101100.44
2022-10-10T14:27:15.500Z,101084.25
2022-10-10T14:29:19.421Z,101081.72
2022-10-10T14:31:21.607Z,101081.97
2022-10-10T14:33:23.960Z,101084.37
2022-10-10T14:35:26.640Z,101086.09
2022-10-10T14:37:29.588Z,101081.06
2022-10-10T14:39:31.990Z,101090.25
2022-10-10T14:41:34.505Z,101084.13
2022-10-10T14:43:36.714Z,101082.38
2022-10-10T14:45:39.586Z,101074.34
2022-10-10T14:47:42.516Z,101081.19
2022-10-10T14:49:45.301Z,101078.66
2022-10-10T14:51:48.217Z,101075.62
2022-10-10T14:54:10.702Z,101064.94
2022-10-10T14:56:13.247Z,101083.66
2022-10-10T14:58:18.136Z,101077.06
2022-10-10T15:00:23.522Z,101068.22
2022-10-10T15:02:26.145Z,101064.97
2022-10-10T15:04:28.354Z,101060.91
2022-10-10T15:06:30.828Z,101074.50
2022-10-10T15:08:33.332Z,101072.72
2022-10-10T15:10:35.752Z,101070.50
2022-10-10T15:12:41.624Z,101061.47
2022-10-10T15:14:43.854Z,101057.53
2022-10-10T15:16:46.056Z,101057.41
2022-10-10T15:18:54.171Z,101052.81
2022-10-10T15:20:57.031Z,101051.44
2022-10-10T15:23:05.202Z,101055.47
2022-10-10T15:25:08.787Z,101049.50
2022-10-10T15:27:10.974Z,101050.53
2022-10-10T15:29:13.316Z,101049.22
2022-10-10T15:31:15.900Z,101045.31
2022-10-10T15:33:18.488Z,101041.41
2022-10-10T15:35:22.537Z,101039.94
2022-10-10T15:37:26.789Z,101032.84
2022-10-10T15:39:30.885Z,101044.75
2022-10-10T15:41:33.201Z,101034.16
2022-10-10T15:43:51.899Z,101034.06
2022-10-10T15:45:56.499Z,101028.94
2022-10-10T15:47:59.097Z,101033.25
2022-10-10T15:50:01.612Z,101025.41
2022-10-10T15:52:03.963Z,101023.19
2022-10-10T15:54:06.282Z,101027.63
2022-10-10T15:56:16.076Z,101024.28
2022-10-10T15:58:18.364Z,101019.00
2022-10-10T16:00:20.720Z,101014.22
2022-10-10T16:02:23.602Z,101019.94
2022-10-10T16:04:26.117Z,101018.44
2022-10-10T16:06:28.615Z,101021.31
2022-10-10T16:08:31.168Z,101011.81
2022-10-10T16:10:38.436Z,101018.78
2022-10-10T16:12:40.947Z,101020.25
2022-10-10T16:14:43.529Z,101017.81
2022-10-10T16:16:45.951Z,101012.44
2022-10-10T16:18:49.446Z,101013.50
2022-10-10T16:20:52.210Z,101009.81
2022-10-10T16:22:55.149Z,101017.41
2022-10-10T16:25:20.491Z,101020.44
2022-10-10T16:27:22.495Z,101020.63
2022-10-10T16:29:28.066Z,101021.38
2022-10-10T16:31:31.164Z,101015.69
2022-10-10T16:33:38.049Z,101016.09
2022-10-10T16:35:40.267Z,101013.56
2022-10-10T16:37:42.590Z,101014.59
2022-10-10T16:39:45.179Z,101016.28
2022-10-10T16:41:48.752Z,101011.13
2022-10-10T16:43:51.582Z,101003.09
2022-10-10T16:45:54.147Z,101016.81
2022-10-10T16:47:56.461Z,101007.41
2022-10-10T16:49:58.782Z,101008.91
2022-10-10T16:52:01.444Z,101006.13
2022-10-10T16:54:05.377Z,101014.97
2022-10-10T16:56:11.084Z,101011.59
2022-10-10T16:58:13.723Z,101010.78
2022-10-10T17:00:16.218Z,101016.03
2022-10-10T17:02:18.504Z,101013.63
2022-10-10T17:04:21.690Z,101014.22
2022-10-10T17:06:23.947Z,101015.41
2022-10-10T17:08:26.217Z,101017.94
2022-10-10T17:10:28.774Z,101015.59
2022-10-10T17:12:31.208Z,101014.75
2022-10-10T17:14:33.575Z,101014.53
2022-10-10T17:18:59.854Z,101020.78
2022-10-10T17:21:05.077Z,101012.12
2022-10-10T17:23:07.934Z,101015.12
2022-10-10T17:25:10.826Z,101014.75
2022-10-10T17:27:13.306Z,101004.88
2022-10-10T17:29:15.951Z,101004.22
2022-10-10T17:31:18.289Z,101000.56
2022-10-10T17:33:20.611Z,100997.91
2022-10-10T17:35:23.222Z,101003.78
2022-10-10T17:37:25.566Z,101002.09
2022-10-10T17:39:28.003Z,101000.00
2022-10-10T17:41:32.570Z,100996.06
2022-10-10T17:43:35.750Z,100993.44
2022-10-10T17:45:39.812Z,100995.31
2022-10-10T17:47:42.328Z,100989.91
2022-10-10T17:49:46.792Z,100992.44
2022-10-10T17:51:49.702Z,100991.97
2022-10-10T17:53:52.346Z,100997.13
2022-10-10T17:55:54.596Z,101003.44
2022-10-10T17:57:56.960Z,100996.28
2022-10-10T17:59:59.498Z,100997.50
2022-10-10T18:02:01.844Z,100994.25
2022-10-10T18:04:05.189Z,100992.44
2022-10-10T18:06:10.834Z,100989.03
2022-10-10T18:08:13.753Z,100995.28
2022-10-10T18:10:16.488Z,100990.56
2022-10-10T18:12:19.409Z,100995.94
2022-10-10T18:14:22.159Z,100996.03
2022-10-10T18:16:24.781Z,100992.84
2022-10-10T18:18:26.999Z,100979.22
2022-10-10T18:20:29.794Z,100974.16
2022-10-10T18:22:32.492Z,100983.72
2022-10-10T18:24:34.753Z,100973.22
2022-10-10T18:26:37.189Z,100975.59
2022-10-10T18:28:48.375Z,100977.72
2022-10-10T18:30:50.883Z,100977.34
2022-10-10T18:32:53.208Z,100973.41
2022-10-10T18:34:55.987Z,100976.59
2022-10-10T18:36:58.247Z,100974.28
2022-10-10T18:39:05.817Z,100975.13
2022-10-10T18:41:17.701Z,100977.75
2022-10-10T18:43:20.007Z,100973.16
2022-10-10T18:45:22.219Z,100972.66
2022-10-10T18:47:25.015Z,100967.91
2022-10-10T18:49:27.930Z,100958.59
2022-10-10T18:51:31.213Z,100963.59
2022-10-10T18:53:38.337Z,100959.06
2022-10-10T18:55:40.995Z,100951.09
2022-10-10T18:57:43.298Z,100956.75
2022-10-10T18:59:45.815Z,100961.91
2022-10-10T19:01:50.326Z,100965.09
2022-10-10T19:03:53.913Z,100961.34
2022-10-10T19:05:57.347Z,100959.06
2022-10-10T19:07:59.633Z,100959.94
2022-10-10T19:10:04.140Z,100957.59
2022-10-10T19:12:06.902Z,100961.91
2022-10-10T19:14:14.549Z,100959.37
2022-10-10T19:16:17.341Z,100971.97
2022-10-10T19:18:21.063Z,100975.25
2022-10-10T19:20:28.389Z,100978.25
2022-10-10T19:22:31.705Z,100968.38
2022-10-10T19:24:34.424Z,100974.56
2022-10-10T19:26:37.384Z,100973.34
2022-10-10T19:28:40.817Z,100973.91
2022-10-10T19:30:44.728Z,100977.78
2022-10-10T19:34:54.340Z,100970.53
2022-10-10T19:36:58.231Z,100968.66
2022-10-10T19:39:01.467Z,100967.69
2022-10-10T19:41:13.838Z,100973.50
2022-10-10T19:43:17.492Z,100976.06
2022-10-10T19:45:19.734Z,100966.56
2022-10-10T19:47:22.056Z,100967.34
2022-10-10T19:49:24.787Z,100972.03
2022-10-10T19:51:29.442Z,100971.38
2022-10-10T19:53:33.547Z,100971.47
2022-10-10T19:55:36.685Z,100970.62
2022-10-10T19:57:38.917Z,100966.16
2022-10-10T19:59:41.272Z,100958.72
2022-10-10T20:01:43.845Z,100959.06
2022-10-10T20:03:47.711Z,100964.34
2022-10-10T20:05:50.012Z,100958.53
2022-10-10T20:07:52.399Z,100964.81
2022-10-10T20:09:55.345Z,100950.22
2022-10-10T20:11:57.622Z,100955.28
2022-10-10T20:13:59.892Z,100957.19
2022-10-10T20:16:05.574Z,100946.97
2022-10-10T20:18:08.270Z,100945.19
2022-10-10T20:20:10.958Z,100939.94
2022-10-10T20:22:14.132Z,100941.13
2022-10-10T20:24:16.402Z,100942.50
2022-10-10T20:26:21.503Z,100943.97
2022-10-10T20:28:24.083Z,100945.25
2022-10-10T20:30:26.337Z,100953.44
2022-10-10T20:32:28.586Z,100953.34
2022-10-10T20:34:31.133Z,100955.69
2022-10-10T20:36:34.325Z,100960.28
2022-10-10T20:38:36.967Z,100951.09
2022-10-10T20:40:41.402Z,100949.75
2022-10-10T20:42:43.636Z,100947.12
2022-10-10T20:44:45.855Z,100950.31
2022-10-10T20:46:48.419Z,100941.97
2022-10-10T20:48:53.952Z,100935.59
2022-10-10T20:51:00.718Z,100943.94
2022-10-10T20:53:03.599Z,100946.78
2022-10-10T20:55:06.256Z,100945.91
2022-10-10T20:57:08.518Z,100944.19
2022-10-10T20:59:12.425Z,100938.31
2022-10-10T21:01:20.813Z,100931.91
2022-10-10T21:03:23.103Z,100934.19
2022-10-10T21:05:25.638Z,100932.94
2022-10-10T21:07:29.033Z,100938.59
2022-10-10T21:09:32.613Z,100935.03
2022-10-10T21:11:35.969Z,100931.47
2022-10-10T21:13:40.709Z,100929.75
2022-10-10T21:15:43.503Z,100933.50
2022-10-10T21:17:49.448Z,100935.69
2022-10-10T21:19:51.702Z,100931.25
2022-10-10T21:21:53.907Z,100925.22
2022-10-10T21:23:57.024Z,100926.47
2022-10-10T21:26:04.550Z,100923.25
2022-10-10T21:28:07.013Z,100927.66
2022-10-10T21:30:09.880Z,100931.16
2022-10-10T21:32:12.069Z,100924.75
2022-10-10T21:34:18.695Z,100922.97
